sensor_id;sensor_type;location;lat;lon;timestamp;P1;durP1;ratioP1;P2;durP2;ratioP2
21677;SDS011;11000;50.360;7.582;2024-03-17T00:01:39;6.50;;;3.33;;
21677;SDS011;11000;50.360;7.582;2024-03-17T00:04:02;5.17;;;3.70;;
21677;SDS011;11000;50.360;7.582;2024-03-17T00:06:23;4.57;;;3.53;;
21677;SDS011;11000;50.360;7.582;2024-03-17T00:08:44;6.43;;;3.50;;
21677;SDS011;11000;50.360;7.582;2024-03-17T00:11:04;6.93;;;3.83;;
21677;SDS011;11000;50.360;7.582;2024-03-17T00:13:25;8.90;;;3.73;;
21677;SDS011;11000;50.360;7.582;2024-03-17T00:15:46;5.87;;;3.70;;
21677;SDS011;11000;50.360;7.582;2024-03-17T00:18:06;7.80;;;3.60;;
21677;SDS011;11000;50.360;7.582;2024-03-17T00:20:27;4.73;;;3.50;;
21677;SDS011;11000;50.360;7.582;2024-03-17T00:22:49;7.17;;;3.60;;
21677;SDS011;11000;50.360;7.582;2024-03-17T00:25:11;4.80;;;3.47;;
21677;SDS011;11000;50.360;7.582;2024-03-17T00:27:31;5.87;;;3.97;;
21677;SDS011;11000;50.360;7.582;2024-03-17T00:29:52;7.63;;;4.03;;
21677;SDS011;11000;50.360;7.582;2024-03-17T00:32:12;9.97;;;3.97;;
21677;SDS011;11000;50.360;7.582;2024-03-17T00:34:34;5.40;;;3.63;;
21677;SDS011;11000;50.360;7.582;2024-03-17T00:36:54;6.43;;;3.50;;
21677;SDS011;11000;50.360;7.582;2024-03-17T00:39:15;9.80;;;4.07;;
21677;SDS011;11000;50.360;7.582;2024-03-17T00:41:36;4.77;;;3.90;;
21677;SDS011;11000;50.360;7.582;2024-03-17T00:43:57;6.57;;;4.07;;
21677;SDS011;11000;50.360;7.582;2024-03-17T00:46:20;7.07;;;3.73;;
21677;SDS011;11000;50.360;7.582;2024-03-17T00:48:42;6.67;;;4.43;;
21677;SDS011;11000;50.360;7.582;2024-03-17T00:51:03;4.70;;;4.00;;
21677;SDS011;11000;50.360;7.582;2024-03-17T00:53:27;6.10;;;4.20;;
21677;SDS011;11000;50.360;7.582;2024-03-17T00:55:52;4.97;;;4.00;;
21677;SDS011;11000;50.360;7.582;2024-03-17T00:58:13;7.90;;;4.73;;
21677;SDS011;11000;50.360;7.582;2024-03-17T01:00:33;8.60;;;4.60;;
21677;SDS011;11000;50.360;7.582;2024-03-17T01:02:54;6.13;;;4.10;;
21677;SDS011;11000;50.360;7.582;2024-03-17T01:05:15;5.37;;;3.90;;
21677;SDS011;11000;50.360;7.582;2024-03-17T01:07:35;6.60;;;4.20;;
21677;SDS011;11000;50.360;7.582;2024-03-17T01:09:56;7.13;;;4.57;;
21677;SDS011;11000;50.360;7.582;2024-03-17T01:12:16;7.67;;;4.20;;
21677;SDS011;11000;50.360;7.582;2024-03-17T01:14:37;6.90;;;4.30;;
21677;SDS011;11000;50.360;7.582;2024-03-17T01:16:58;9.00;;;4.80;;
21677;SDS011;11000;50.360;7.582;2024-03-17T01:19:20;6.97;;;4.20;;
21677;SDS011;11000;50.360;7.582;2024-03-17T01:21:40;8.27;;;4.17;;
21677;SDS011;11000;50.360;7.582;2024-03-17T01:24:01;9.70;;;3.93;;
21677;SDS011;11000;50.360;7.582;2024-03-17T01:26:21;4.87;;;3.67;;
21677;SDS011;11000;50.360;7.582;2024-03-17T01:28:42;5.33;;;4.13;;
21677;SDS011;11000;50.360;7.582;2024-03-17T01:31:05;5.37;;;4.23;;
21677;SDS011;11000;50.360;7.582;2024-03-17T01:33:26;6.00;;;4.07;;
21677;SDS011;11000;50.360;7.582;2024-03-17T01:35:47;10.37;;;4.10;;
21677;SDS011;11000;50.360;7.582;2024-03-17T01:38:08;4.13;;;3.70;;
21677;SDS011;11000;50.360;7.582;2024-03-17T01:40:30;5.23;;;3.77;;
21677;SDS011;11000;50.360;7.582;2024-03-17T01:42:50;7.23;;;4.40;;
21677;SDS011;11000;50.360;7.582;2024-03-17T01:47:48;8.50;;;4.17;;
21677;SDS011;11000;50.360;7.582;2024-03-17T01:50:09;5.73;;;4.07;;
21677;SDS011;11000;50.360;7.582;2024-03-17T01:52:31;4.90;;;3.80;;
21677;SDS011;11000;50.360;7.582;2024-03-17T01:54:52;6.03;;;4.60;;
21677;SDS011;11000;50.360;7.582;2024-03-17T01:57:12;6.60;;;3.60;;
21677;SDS011;11000;50.360;7.582;2024-03-17T01:59:33;7.10;;;4.63;;
21677;SDS011;11000;50.360;7.582;2024-03-17T02:01:54;7.40;;;3.57;;
21677;SDS011;11000;50.360;7.582;2024-03-17T02:04:14;5.57;;;3.67;;
21677;SDS011;11000;50.360;7.582;2024-03-17T02:06:37;5.03;;;3.93;;
21677;SDS011;11000;50.360;7.582;2024-03-17T02:08:59;8.37;;;3.63;;
21677;SDS011;11000;50.360;7.582;2024-03-17T02:11:27;5.40;;;3.70;;
21677;SDS011;11000;50.360;7.582;2024-03-17T02:13:48;4.50;;;3.93;;
21677;SDS011;11000;50.360;7.582;2024-03-17T02:16:10;4.37;;;3.70;;
21677;SDS011;11000;50.360;7.582;2024-03-17T02:18:30;7.30;;;3.50;;
21677;SDS011;11000;50.360;7.582;2024-03-17T02:20:50;5.70;;;3.60;;
21677;SDS011;11000;50.360;7.582;2024-03-17T02:23:21;6.00;;;3.50;;
21677;SDS011;11000;50.360;7.582;2024-03-17T02:25:41;5.73;;;4.10;;
21677;SDS011;11000;50.360;7.582;2024-03-17T02:28:03;8.27;;;4.03;;
21677;SDS011;11000;50.360;7.582;2024-03-17T02:30:24;6.53;;;4.13;;
21677;SDS011;11000;50.360;7.582;2024-03-17T02:32:51;5.63;;;3.97;;
21677;SDS011;11000;50.360;7.582;2024-03-17T02:35:12;5.43;;;3.83;;
21677;SDS011;11000;50.360;7.582;2024-03-17T02:37:33;6.57;;;4.03;;
21677;SDS011;11000;50.360;7.582;2024-03-17T02:39:53;4.73;;;3.63;;
21677;SDS011;11000;50.360;7.582;2024-03-17T02:42:14;5.87;;;4.20;;
21677;SDS011;11000;50.360;7.582;2024-03-17T02:44:35;5.63;;;4.30;;
21677;SDS011;11000;50.360;7.582;2024-03-17T02:46:59;9.87;;;4.77;;
21677;SDS011;11000;50.360;7.582;2024-03-17T02:49:21;6.83;;;3.90;;
21677;SDS011;11000;50.360;7.582;2024-03-17T02:51:42;7.97;;;4.07;;
21677;SDS011;11000;50.360;7.582;2024-03-17T02:54:02;7.00;;;4.30;;
21677;SDS011;11000;50.360;7.582;2024-03-17T02:56:23;6.50;;;4.13;;
21677;SDS011;11000;50.360;7.582;2024-03-17T02:58:46;6.97;;;4.37;;
21677;SDS011;11000;50.360;7.582;2024-03-17T03:01:07;4.47;;;4.07;;
21677;SDS011;11000;50.360;7.582;2024-03-17T03:03:30;8.40;;;4.63;;
21677;SDS011;11000;50.360;7.582;2024-03-17T03:05:51;8.00;;;4.40;;
21677;SDS011;11000;50.360;7.582;2024-03-17T03:08:12;5.03;;;4.10;;
21677;SDS011;11000;50.360;7.582;2024-03-17T03:10:33;5.17;;;3.97;;
21677;SDS011;11000;50.360;7.582;2024-03-17T03:12:55;5.40;;;4.23;;
21677;SDS011;11000;50.360;7.582;2024-03-17T03:15:16;7.00;;;3.73;;
21677;SDS011;11000;50.360;7.582;2024-03-17T03:17:36;5.27;;;4.13;;
21677;SDS011;11000;50.360;7.582;2024-03-17T03:19:57;7.87;;;4.30;;
21677;SDS011;11000;50.360;7.582;2024-03-17T03:22:17;7.23;;;4.00;;
21677;SDS011;11000;50.360;7.582;2024-03-17T03:24:38;6.20;;;4.43;;
21677;SDS011;11000;50.360;7.582;2024-03-17T03:26:58;7.77;;;4.60;;
21677;SDS011;11000;50.360;7.582;2024-03-17T03:29:19;8.93;;;4.20;;
21677;SDS011;11000;50.360;7.582;2024-03-17T03:31:39;6.27;;;3.53;;
21677;SDS011;11000;50.360;7.582;2024-03-17T03:34:00;6.30;;;4.37;;
21677;SDS011;11000;50.360;7.582;2024-03-17T03:36:21;7.33;;;4.40;;
21677;SDS011;11000;50.360;7.582;2024-03-17T03:38:42;5.87;;;4.10;;
21677;SDS011;11000;50.360;7.582;2024-03-17T03:41:09;4.57;;;3.97;;
21677;SDS011;11000;50.360;7.582;2024-03-17T03:43:32;6.47;;;4.17;;
21677;SDS011;11000;50.360;7.582;2024-03-17T03:45:53;10.23;;;4.50;;
21677;SDS011;11000;50.360;7.582;2024-03-17T03:48:13;7.47;;;4.50;;
21677;SDS011;11000;50.360;7.582;2024-03-17T03:50:34;5.63;;;4.20;;
21677;SDS011;11000;50.360;7.582;2024-03-17T03:52:55;8.90;;;4.60;;
21677;SDS011;11000;50.360;7.582;2024-03-17T03:55:16;5.93;;;4.50;;
21677;SDS011;11000;50.360;7.582;2024-03-17T03:57:37;5.23;;;3.87;;
21677;SDS011;11000;50.360;7.582;2024-03-17T03:59:59;6.00;;;4.03;;
21677;SDS011;11000;50.360;7.582;2024-03-17T04:02:20;9.13;;;4.33;;
21677;SDS011;11000;50.360;7.582;2024-03-17T04:04:40;7.87;;;4.50;;
21677;SDS011;11000;50.360;7.582;2024-03-17T04:07:01;9.27;;;4.30;;
21677;SDS011;11000;50.360;7.582;2024-03-17T04:09:21;5.37;;;4.00;;
21677;SDS011;11000;50.360;7.582;2024-03-17T04:11:42;4.80;;;4.03;;
21677;SDS011;11000;50.360;7.582;2024-03-17T04:14:02;4.73;;;3.90;;
21677;SDS011;11000;50.360;7.582;2024-03-17T04:16:24;5.67;;;4.20;;
21677;SDS011;11000;50.360;7.582;2024-03-17T04:18:45;6.33;;;4.30;;
21677;SDS011;11000;50.360;7.582;2024-03-17T04:21:06;8.23;;;4.67;;
21677;SDS011;11000;50.360;7.582;2024-03-17T04:23:27;6.97;;;4.50;;
21677;SDS011;11000;50.360;7.582;2024-03-17T04:25:48;6.50;;;4.50;;
21677;SDS011;11000;50.360;7.582;2024-03-17T04:28:10;7.07;;;4.40;;
21677;SDS011;11000;50.360;7.582;2024-03-17T04:30:30;6.27;;;4.33;;
21677;SDS011;11000;50.360;7.582;2024-03-17T04:32:51;5.27;;;4.10;;
21677;SDS011;11000;50.360;7.582;2024-03-17T04:35:12;6.10;;;4.57;;
21677;SDS011;11000;50.360;7.582;2024-03-17T04:37:32;5.13;;;4.00;;
21677;SDS011;11000;50.360;7.582;2024-03-17T04:39:58;5.03;;;4.27;;
21677;SDS011;11000;50.360;7.582;2024-03-17T04:42:19;6.57;;;4.50;;
21677;SDS011;11000;50.360;7.582;2024-03-17T04:44:40;6.90;;;4.97;;
21677;SDS011;11000;50.360;7.582;2024-03-17T04:47:01;5.50;;;4.10;;
21677;SDS011;11000;50.360;7.582;2024-03-17T04:49:26;7.77;;;4.30;;
21677;SDS011;11000;50.360;7.582;2024-03-17T04:51:47;8.60;;;4.63;;
21677;SDS011;11000;50.360;7.582;2024-03-17T04:54:07;6.70;;;4.53;;
21677;SDS011;11000;50.360;7.582;2024-03-17T04:56:28;7.37;;;4.17;;
21677;SDS011;11000;50.360;7.582;2024-03-17T04:58:48;7.20;;;4.87;;
21677;SDS011;11000;50.360;7.582;2024-03-17T05:01:09;4.80;;;4.37;;
21677;SDS011;11000;50.360;7.582;2024-03-17T05:03:30;8.50;;;4.40;;
21677;SDS011;11000;50.360;7.582;2024-03-17T05:05:57;7.67;;;4.37;;
21677;SDS011;11000;50.360;7.582;2024-03-17T05:08:20;4.50;;;3.77;;
21677;SDS011;11000;50.360;7.582;2024-03-17T05:10:41;7.57;;;3.93;;
21677;SDS011;11000;50.360;7.582;2024-03-17T05:13:01;4.40;;;4.00;;
21677;SDS011;11000;50.360;7.582;2024-03-17T05:15:22;6.07;;;3.87;;
21677;SDS011;11000;50.360;7.582;2024-03-17T05:17:43;7.93;;;5.07;;
21677;SDS011;11000;50.360;7.582;2024-03-17T05:20:03;5.50;;;4.13;;
21677;SDS011;11000;50.360;7.582;2024-03-17T05:22:25;5.33;;;4.00;;
21677;SDS011;11000;50.360;7.582;2024-03-17T05:24:46;5.17;;;4.13;;
21677;SDS011;11000;50.360;7.582;2024-03-17T05:27:06;6.90;;;3.90;;
21677;SDS011;11000;50.360;7.582;2024-03-17T05:29:27;7.07;;;4.20;;
21677;SDS011;11000;50.360;7.582;2024-03-17T05:31:48;6.37;;;4.23;;
21677;SDS011;11000;50.360;7.582;2024-03-17T05:34:09;3.90;;;3.40;;
21677;SDS011;11000;50.360;7.582;2024-03-17T05:36:30;6.03;;;4.40;;
21677;SDS011;11000;50.360;7.582;2024-03-17T05:38:52;5.17;;;4.00;;
21677;SDS011;11000;50.360;7.582;2024-03-17T05:41:13;5.63;;;4.40;;
21677;SDS011;11000;50.360;7.582;2024-03-17T05:43:35;5.27;;;3.97;;
21677;SDS011;11000;50.360;7.582;2024-03-17T05:45:56;7.23;;;4.50;;
21677;SDS011;11000;50.360;7.582;2024-03-17T05:48:18;5.97;;;4.47;;
21677;SDS011;11000;50.360;7.582;2024-03-17T05:50:39;5.03;;;4.27;;
21677;SDS011;11000;50.360;7.582;2024-03-17T05:52:59;6.73;;;4.67;;
21677;SDS011;11000;50.360;7.582;2024-03-17T05:55:20;8.70;;;4.63;;
21677;SDS011;11000;50.360;7.582;2024-03-17T05:57:41;6.87;;;4.80;;
21677;SDS011;11000;50.360;7.582;2024-03-17T06:00:01;6.63;;;4.63;;
21677;SDS011;11000;50.360;7.582;2024-03-17T06:02:22;8.53;;;5.27;;
21677;SDS011;11000;50.360;7.582;2024-03-17T06:04:42;5.73;;;4.67;;
21677;SDS011;11000;50.360;7.582;2024-03-17T06:07:03;6.57;;;4.73;;
21677;SDS011;11000;50.360;7.582;2024-03-17T06:09:24;11.57;;;6.20;;
21677;SDS011;11000;50.360;7.582;2024-03-17T06:11:45;7.90;;;5.23;;
21677;SDS011;11000;50.360;7.582;2024-03-17T06:14:06;6.63;;;5.53;;
21677;SDS011;11000;50.360;7.582;2024-03-17T06:16:30;7.13;;;5.80;;
21677;SDS011;11000;50.360;7.582;2024-03-17T06:18:50;12.97;;;6.20;;
21677;SDS011;11000;50.360;7.582;2024-03-17T06:21:11;6.67;;;5.50;;
21677;SDS011;11000;50.360;7.582;2024-03-17T06:23:32;7.93;;;5.50;;
21677;SDS011;11000;50.360;7.582;2024-03-17T06:25:53;9.80;;;5.90;;
21677;SDS011;11000;50.360;7.582;2024-03-17T06:28:15;8.57;;;6.27;;
21677;SDS011;11000;50.360;7.582;2024-03-17T06:30:36;9.50;;;6.23;;
21677;SDS011;11000;50.360;7.582;2024-03-17T06:32:57;12.53;;;6.87;;
21677;SDS011;11000;50.360;7.582;2024-03-17T06:35:17;10.63;;;6.60;;
21677;SDS011;11000;50.360;7.582;2024-03-17T06:37:38;7.67;;;6.37;;
21677;SDS011;11000;50.360;7.582;2024-03-17T06:39:59;8.93;;;6.20;;
21677;SDS011;11000;50.360;7.582;2024-03-17T06:42:19;10.17;;;6.57;;
21677;SDS011;11000;50.360;7.582;2024-03-17T06:44:40;10.40;;;6.97;;
21677;SDS011;11000;50.360;7.582;2024-03-17T06:47:00;11.23;;;6.90;;
21677;SDS011;11000;50.360;7.582;2024-03-17T06:49:21;14.50;;;6.73;;
21677;SDS011;11000;50.360;7.582;2024-03-17T06:51:43;11.40;;;6.53;;
21677;SDS011;11000;50.360;7.582;2024-03-17T06:54:04;14.10;;;6.30;;
21677;SDS011;11000;50.360;7.582;2024-03-17T06:56:24;6.33;;;5.70;;
21677;SDS011;11000;50.360;7.582;2024-03-17T06:58:45;10.93;;;6.63;;
21677;SDS011;11000;50.360;7.582;2024-03-17T07:01:05;10.37;;;6.57;;
21677;SDS011;11000;50.360;7.582;2024-03-17T07:03:27;10.27;;;7.27;;
21677;SDS011;11000;50.360;7.582;2024-03-17T07:05:56;8.73;;;6.10;;
21677;SDS011;11000;50.360;7.582;2024-03-17T07:08:18;9.07;;;6.27;;
21677;SDS011;11000;50.360;7.582;2024-03-17T07:10:40;7.43;;;5.73;;
21677;SDS011;11000;50.360;7.582;2024-03-17T07:13:01;7.57;;;6.07;;
21677;SDS011;11000;50.360;7.582;2024-03-17T07:15:22;8.90;;;5.93;;
21677;SDS011;11000;50.360;7.582;2024-03-17T07:17:42;8.80;;;5.80;;
21677;SDS011;11000;50.360;7.582;2024-03-17T07:20:03;9.27;;;6.47;;
21677;SDS011;11000;50.360;7.582;2024-03-17T07:22:28;7.50;;;5.37;;
21677;SDS011;11000;50.360;7.582;2024-03-17T07:24:49;6.80;;;5.93;;
21677;SDS011;11000;50.360;7.582;2024-03-17T07:27:15;7.93;;;6.10;;
21677;SDS011;11000;50.360;7.582;2024-03-17T07:29:35;6.73;;;5.23;;
21677;SDS011;11000;50.360;7.582;2024-03-17T07:31:56;6.70;;;5.53;;
21677;SDS011;11000;50.360;7.582;2024-03-17T07:34:16;8.47;;;5.70;;
21677;SDS011;11000;50.360;7.582;2024-03-17T07:36:37;8.67;;;5.70;;
21677;SDS011;11000;50.360;7.582;2024-03-17T07:38:58;7.73;;;6.03;;
21677;SDS011;11000;50.360;7.582;2024-03-17T07:41:18;7.87;;;5.73;;
21677;SDS011;11000;50.360;7.582;2024-03-17T07:43:39;9.70;;;5.97;;
21677;SDS011;11000;50.360;7.582;2024-03-17T07:46:04;5.20;;;4.57;;
21677;SDS011;11000;50.360;7.582;2024-03-17T07:48:26;6.80;;;5.47;;
21677;SDS011;11000;50.360;7.582;2024-03-17T07:50:57;6.27;;;5.40;;
21677;SDS011;11000;50.360;7.582;2024-03-17T07:53:20;9.13;;;5.20;;
21677;SDS011;11000;50.360;7.582;2024-03-17T07:55:41;7.07;;;5.00;;
21677;SDS011;11000;50.360;7.582;2024-03-17T07:58:01;7.53;;;5.50;;
21677;SDS011;11000;50.360;7.582;2024-03-17T08:00:22;7.10;;;5.37;;
21677;SDS011;11000;50.360;7.582;2024-03-17T08:02:46;7.40;;;4.53;;
21677;SDS011;11000;50.360;7.582;2024-03-17T08:05:06;5.43;;;4.67;;
21677;SDS011;11000;50.360;7.582;2024-03-17T08:07:27;7.00;;;5.23;;
21677;SDS011;11000;50.360;7.582;2024-03-17T08:09:47;6.60;;;5.33;;
21677;SDS011;11000;50.360;7.582;2024-03-17T08:12:08;9.57;;;5.13;;
21677;SDS011;11000;50.360;7.582;2024-03-17T08:14:29;6.00;;;4.50;;
21677;SDS011;11000;50.360;7.582;2024-03-17T08:16:49;6.93;;;5.00;;
21677;SDS011;11000;50.360;7.582;2024-03-17T08:19:10;6.07;;;4.80;;
21677;SDS011;11000;50.360;7.582;2024-03-17T08:21:30;5.57;;;4.43;;
21677;SDS011;11000;50.360;7.582;2024-03-17T08:23:51;4.63;;;4.00;;
21677;SDS011;11000;50.360;7.582;2024-03-17T08:28:35;4.73;;;4.20;;
21677;SDS011;11000;50.360;7.582;2024-03-17T08:30:57;5.17;;;4.30;;
21677;SDS011;11000;50.360;7.582;2024-03-17T08:33:18;6.40;;;4.50;;
21677;SDS011;11000;50.360;7.582;2024-03-17T08:35:40;7.33;;;4.80;;
21677;SDS011;11000;50.360;7.582;2024-03-17T08:38:00;5.80;;;5.03;;
21677;SDS011;11000;50.360;7.582;2024-03-17T08:40:21;4.83;;;4.43;;
21677;SDS011;11000;50.360;7.582;2024-03-17T08:42:42;4.90;;;4.40;;
21677;SDS011;11000;50.360;7.582;2024-03-17T08:45:03;6.37;;;5.20;;
21677;SDS011;11000;50.360;7.582;2024-03-17T08:47:24;6.83;;;5.20;;
21677;SDS011;11000;50.360;7.582;2024-03-17T08:49:45;7.53;;;5.30;;
21677;SDS011;11000;50.360;7.582;2024-03-17T08:52:05;7.90;;;5.67;;
21677;SDS011;11000;50.360;7.582;2024-03-17T08:54:27;6.07;;;4.97;;
21677;SDS011;11000;50.360;7.582;2024-03-17T08:56:47;11.47;;;5.10;;
21677;SDS011;11000;50.360;7.582;2024-03-17T08:59:09;6.40;;;5.20;;
21677;SDS011;11000;50.360;7.582;2024-03-17T09:01:32;7.07;;;5.67;;
21677;SDS011;11000;50.360;7.582;2024-03-17T09:03:52;7.00;;;6.00;;
21677;SDS011;11000;50.360;7.582;2024-03-17T09:06:16;8.90;;;5.87;;
21677;SDS011;11000;50.360;7.582;2024-03-17T09:08:38;7.13;;;5.37;;
21677;SDS011;11000;50.360;7.582;2024-03-17T09:10:59;9.27;;;6.00;;
21677;SDS011;11000;50.360;7.582;2024-03-17T09:13:20;8.23;;;6.50;;
21677;SDS011;11000;50.360;7.582;2024-03-17T09:15:56;9.57;;;6.43;;
21677;SDS011;11000;50.360;7.582;2024-03-17T09:18:19;10.13;;;6.97;;
21677;SDS011;11000;50.360;7.582;2024-03-17T09:20:40;9.10;;;6.70;;
21677;SDS011;11000;50.360;7.582;2024-03-17T09:23:02;8.93;;;6.97;;
21677;SDS011;11000;50.360;7.582;2024-03-17T09:25:23;8.33;;;6.30;;
21677;SDS011;11000;50.360;7.582;2024-03-17T09:27:44;9.20;;;7.50;;
21677;SDS011;11000;50.360;7.582;2024-03-17T09:30:04;12.33;;;7.80;;
21677;SDS011;11000;50.360;7.582;2024-03-17T09:32:31;8.77;;;7.40;;
21677;SDS011;11000;50.360;7.582;2024-03-17T09:34:52;10.40;;;7.43;;
21677;SDS011;11000;50.360;7.582;2024-03-17T09:37:13;7.30;;;6.13;;
21677;SDS011;11000;50.360;7.582;2024-03-17T09:39:34;11.70;;;7.20;;
21677;SDS011;11000;50.360;7.582;2024-03-17T09:41:54;11.23;;;6.53;;
21677;SDS011;11000;50.360;7.582;2024-03-17T09:44:15;8.33;;;7.20;;
21677;SDS011;11000;50.360;7.582;2024-03-17T09:46:36;10.67;;;6.47;;
21677;SDS011;11000;50.360;7.582;2024-03-17T09:48:57;8.97;;;6.40;;
21677;SDS011;11000;50.360;7.582;2024-03-17T09:51:21;9.63;;;7.07;;
21677;SDS011;11000;50.360;7.582;2024-03-17T09:53:43;8.07;;;5.87;;
21677;SDS011;11000;50.360;7.582;2024-03-17T09:56:11;8.03;;;5.97;;
21677;SDS011;11000;50.360;7.582;2024-03-17T09:58:35;11.40;;;6.47;;
21677;SDS011;11000;50.360;7.582;2024-03-17T10:00:56;9.13;;;6.13;;
21677;SDS011;11000;50.360;7.582;2024-03-17T10:06:00;7.87;;;4.90;;
21677;SDS011;11000;50.360;7.582;2024-03-17T10:08:21;6.90;;;5.30;;
21677;SDS011;11000;50.360;7.582;2024-03-17T10:10:42;6.30;;;4.13;;
21677;SDS011;11000;50.360;7.582;2024-03-17T10:13:02;5.87;;;4.40;;
21677;SDS011;11000;50.360;7.582;2024-03-17T10:15:23;6.57;;;4.20;;
21677;SDS011;11000;50.360;7.582;2024-03-17T10:17:44;5.70;;;3.80;;
21677;SDS011;11000;50.360;7.582;2024-03-17T10:20:11;4.37;;;3.93;;
21677;SDS011;11000;50.360;7.582;2024-03-17T10:22:35;5.77;;;3.90;;
21677;SDS011;11000;50.360;7.582;2024-03-17T10:24:59;5.27;;;4.27;;
21677;SDS011;11000;50.360;7.582;2024-03-17T10:27:22;6.00;;;3.90;;
21677;SDS011;11000;50.360;7.582;2024-03-17T10:29:43;5.87;;;3.90;;
21677;SDS011;11000;50.360;7.582;2024-03-17T10:32:13;4.83;;;3.83;;
21677;SDS011;11000;50.360;7.582;2024-03-17T10:34:36;4.30;;;3.87;;
21677;SDS011;11000;50.360;7.582;2024-03-17T10:37:06;4.03;;;3.73;;
21677;SDS011;11000;50.360;7.582;2024-03-17T10:39:30;5.13;;;3.53;;
21677;SDS011;11000;50.360;7.582;2024-03-17T10:41:52;5.50;;;3.40;;
21677;SDS011;11000;50.360;7.582;2024-03-17T10:44:14;6.07;;;3.50;;
21677;SDS011;11000;50.360;7.582;2024-03-17T10:46:34;4.13;;;3.20;;
21677;SDS011;11000;50.360;7.582;2024-03-17T10:48:55;6.23;;;3.57;;
21677;SDS011;11000;50.360;7.582;2024-03-17T10:51:16;5.80;;;4.00;;
21677;SDS011;11000;50.360;7.582;2024-03-17T10:53:38;8.43;;;3.43;;
21677;SDS011;11000;50.360;7.582;2024-03-17T10:56:05;5.47;;;3.60;;
21677;SDS011;11000;50.360;7.582;2024-03-17T11:00:50;5.80;;;3.90;;
21677;SDS011;11000;50.360;7.582;2024-03-17T11:03:11;4.40;;;3.80;;
21677;SDS011;11000;50.360;7.582;2024-03-17T11:05:32;5.87;;;3.97;;
21677;SDS011;11000;50.360;7.582;2024-03-17T11:07:54;5.10;;;3.37;;
21677;SDS011;11000;50.360;7.582;2024-03-17T11:10:24;4.57;;;3.63;;
21677;SDS011;11000;50.360;7.582;2024-03-17T11:12:54;6.37;;;3.93;;
21677;SDS011;11000;50.360;7.582;2024-03-17T11:17:38;5.07;;;4.17;;
21677;SDS011;11000;50.360;7.582;2024-03-17T11:22:44;6.53;;;4.13;;
21677;SDS011;11000;50.360;7.582;2024-03-17T11:27:51;4.83;;;3.63;;
21677;SDS011;11000;50.360;7.582;2024-03-17T11:33:00;4.43;;;3.77;;
21677;SDS011;11000;50.360;7.582;2024-03-17T11:35:22;4.70;;;3.67;;
21677;SDS011;11000;50.360;7.582;2024-03-17T11:37:43;5.03;;;4.07;;
21677;SDS011;11000;50.360;7.582;2024-03-17T11:40:22;4.63;;;3.33;;
21677;SDS011;11000;50.360;7.582;2024-03-17T11:43:05;4.30;;;3.90;;
21677;SDS011;11000;50.360;7.582;2024-03-17T11:45:27;4.70;;;3.20;;
21677;SDS011;11000;50.360;7.582;2024-03-17T11:47:47;5.47;;;3.80;;
21677;SDS011;11000;50.360;7.582;2024-03-17T11:50:09;7.13;;;3.90;;
21677;SDS011;11000;50.360;7.582;2024-03-17T11:52:32;5.63;;;4.10;;
21677;SDS011;11000;50.360;7.582;2024-03-17T11:54:53;4.83;;;4.00;;
21677;SDS011;11000;50.360;7.582;2024-03-17T11:57:23;4.87;;;3.67;;
21677;SDS011;11000;50.360;7.582;2024-03-17T11:59:44;6.27;;;3.80;;
21677;SDS011;11000;50.360;7.582;2024-03-17T12:04:49;4.67;;;4.00;;
21677;SDS011;11000;50.360;7.582;2024-03-17T12:07:14;4.83;;;3.90;;
21677;SDS011;11000;50.360;7.582;2024-03-17T12:09:36;6.10;;;3.33;;
21677;SDS011;11000;50.360;7.582;2024-03-17T12:12:01;4.30;;;3.43;;
21677;SDS011;11000;50.360;7.582;2024-03-17T12:14:38;5.97;;;4.03;;
21677;SDS011;11000;50.360;7.582;2024-03-17T12:17:01;5.97;;;4.33;;
21677;SDS011;11000;50.360;7.582;2024-03-17T12:19:23;8.80;;;4.10;;
21677;SDS011;11000;50.360;7.582;2024-03-17T12:21:49;4.97;;;3.70;;
21677;SDS011;11000;50.360;7.582;2024-03-17T12:24:23;5.97;;;3.90;;
21677;SDS011;11000;50.360;7.582;2024-03-17T12:26:46;8.13;;;4.23;;
21677;SDS011;11000;50.360;7.582;2024-03-17T12:31:45;7.27;;;4.53;;
21677;SDS011;11000;50.360;7.582;2024-03-17T12:34:05;6.70;;;4.30;;
21677;SDS011;11000;50.360;7.582;2024-03-17T12:36:26;4.70;;;4.23;;
21677;SDS011;11000;50.360;7.582;2024-03-17T12:38:47;5.40;;;4.00;;
21677;SDS011;11000;50.360;7.582;2024-03-17T12:41:16;7.10;;;4.60;;
21677;SDS011;11000;50.360;7.582;2024-03-17T12:43:47;4.70;;;4.13;;
21677;SDS011;11000;50.360;7.582;2024-03-17T12:46:10;5.97;;;4.63;;
21677;SDS011;11000;50.360;7.582;2024-03-17T12:48:33;4.77;;;4.20;;
21677;SDS011;11000;50.360;7.582;2024-03-17T12:50:54;4.87;;;4.17;;
21677;SDS011;11000;50.360;7.582;2024-03-17T12:53:15;4.03;;;3.63;;
21677;SDS011;11000;50.360;7.582;2024-03-17T12:55:37;3.90;;;3.50;;
21677;SDS011;11000;50.360;7.582;2024-03-17T12:58:16;5.87;;;3.80;;
21677;SDS011;11000;50.360;7.582;2024-03-17T13:00:59;4.20;;;3.80;;
21677;SDS011;11000;50.360;7.582;2024-03-17T13:03:23;7.70;;;4.20;;
21677;SDS011;11000;50.360;7.582;2024-03-17T13:05:46;4.40;;;4.00;;
21677;SDS011;11000;50.360;7.582;2024-03-17T13:08:07;4.77;;;4.20;;
21677;SDS011;11000;50.360;7.582;2024-03-17T13:10:31;4.83;;;3.50;;
21677;SDS011;11000;50.360;7.582;2024-03-17T13:12:59;4.30;;;3.93;;
21677;SDS011;11000;50.360;7.582;2024-03-17T13:15:22;4.87;;;4.07;;
21677;SDS011;11000;50.360;7.582;2024-03-17T13:17:43;4.00;;;3.53;;
21677;SDS011;11000;50.360;7.582;2024-03-17T13:20:08;6.27;;;4.20;;
21677;SDS011;11000;50.360;7.582;2024-03-17T13:22:35;5.63;;;3.73;;
21677;SDS011;11000;50.360;7.582;2024-03-17T13:28:03;5.17;;;3.53;;
21677;SDS011;11000;50.360;7.582;2024-03-17T13:30:26;5.40;;;3.17;;
21677;SDS011;11000;50.360;7.582;2024-03-17T13:32:49;4.77;;;3.50;;
21677;SDS011;11000;50.360;7.582;2024-03-17T13:35:15;5.23;;;3.60;;
21677;SDS011;11000;50.360;7.582;2024-03-17T13:37:49;6.47;;;3.80;;
21677;SDS011;11000;50.360;7.582;2024-03-17T13:40:11;4.97;;;3.93;;
21677;SDS011;11000;50.360;7.582;2024-03-17T13:42:32;4.10;;;3.70;;
21677;SDS011;11000;50.360;7.582;2024-03-17T13:45:01;5.10;;;3.73;;
21677;SDS011;11000;50.360;7.582;2024-03-17T13:48:01;5.20;;;3.60;;
21677;SDS011;11000;50.360;7.582;2024-03-17T13:50:57;4.93;;;3.77;;
21677;SDS011;11000;50.360;7.582;2024-03-17T13:53:54;7.00;;;4.43;;
21677;SDS011;11000;50.360;7.582;2024-03-17T13:56:19;5.33;;;3.60;;
21677;SDS011;11000;50.360;7.582;2024-03-17T13:58:40;4.63;;;3.63;;
21677;SDS011;11000;50.360;7.582;2024-03-17T14:01:01;6.30;;;3.57;;
21677;SDS011;11000;50.360;7.582;2024-03-17T14:03:21;4.50;;;3.20;;
21677;SDS011;11000;50.360;7.582;2024-03-17T14:05:42;9.00;;;4.47;;
21677;SDS011;11000;50.360;7.582;2024-03-17T14:08:03;5.37;;;3.27;;
21677;SDS011;11000;50.360;7.582;2024-03-17T14:10:25;3.57;;;3.20;;
21677;SDS011;11000;50.360;7.582;2024-03-17T14:12:48;4.03;;;3.33;;
21677;SDS011;11000;50.360;7.582;2024-03-17T14:15:09;3.60;;;3.20;;
21677;SDS011;11000;50.360;7.582;2024-03-17T14:17:31;5.07;;;3.43;;
21677;SDS011;11000;50.360;7.582;2024-03-17T14:19:52;4.50;;;3.37;;
21677;SDS011;11000;50.360;7.582;2024-03-17T14:22:13;6.80;;;3.40;;
21677;SDS011;11000;50.360;7.582;2024-03-17T14:24:34;4.03;;;2.83;;
21677;SDS011;11000;50.360;7.582;2024-03-17T14:26:58;4.57;;;2.73;;
21677;SDS011;11000;50.360;7.582;2024-03-17T14:29:18;2.67;;;2.30;;
21677;SDS011;11000;50.360;7.582;2024-03-17T14:31:40;2.87;;;2.60;;
21677;SDS011;11000;50.360;7.582;2024-03-17T14:34:04;4.53;;;3.23;;
21677;SDS011;11000;50.360;7.582;2024-03-17T14:36:24;3.67;;;2.50;;
21677;SDS011;11000;50.360;7.582;2024-03-17T14:38:48;4.33;;;2.80;;
21677;SDS011;11000;50.360;7.582;2024-03-17T14:41:11;3.20;;;2.60;;
21677;SDS011;11000;50.360;7.582;2024-03-17T14:43:31;4.57;;;2.93;;
21677;SDS011;11000;50.360;7.582;2024-03-17T14:45:58;3.27;;;2.50;;
21677;SDS011;11000;50.360;7.582;2024-03-17T14:48:19;4.40;;;2.57;;